CheckWX is a tool to help pilots better visualize weather data.  It is not intended as a substitute for an official pre-flight weather briefing.

17:27:40 UTC

TFFF TAF
Martinique Aimé Césaire International Airport
Fort-de-France, Martinique
TAF TFFF 241100Z 2412/2512 10015KT 9999 SCT020 BKN040 TEMPO 2412/2502 3000 SHRA BKN015TCU BKN040 PROB30 TEMPO 2412/2421 10015G25KT BECMG 2503/2505 SCT030

Mar-24@
12:00 UTC

Mar-24 @ 12:00 UTC

Mar-25@
03:00 UTC

Mar-25 @ 03:00 UTC

TAF TFFF 241100Z 2412/2512 10015KT 9999 SCT020 BKN040
Wind
  • 100° at 15 KTS
Cloud Levels
  • Scattered at 2,000' AGL
  • Broken at 4,000' AGL

Mar-24@
12:00 UTC

Mar-24 @ 12:00 UTC

Mar-24@
21:00 UTC

Mar-24 @ 21:00 UTC

PROB30 TEMPO 2412/2421 10015G25KT

Temporary - 30% Likelihood

Temporary - 30% Likelihood during this time.

Wind
  • 100° at 15 KTS
  • {Gusting to 25 KTS

Mar-24@
12:00 UTC

Mar-24 @ 12:00 UTC

Mar-25@
02:00 UTC

Mar-25 @ 02:00 UTC

TEMPO 2412/2502 3000 SHRA BKN015TCU BKN040

Temporary

Temporary Changes expected for less than half the time period

Conditions
Rain
Cloud Levels
  • Broken at 1,500' AGL
  • Broken at 4,000' AGL

Mar-25@
03:00 UTC

Mar-25 @ 03:00 UTC

Mar-25@
12:00 UTC

Mar-25 @ 12:00 UTC

BECMG 2503/2505 SCT030

Becoming

Becoming Conditions expected by Mon, Mar 25, 2019 @ 05:00 UTC

Wind
  • 100° at 15 KTS
Cloud Levels
  • Scattered at 3,000' AGL